Tonalea, Arizona
Current Conditions -  °F | °C
As of 11:53 AM on Friday 28 Nov 2014 (Local Time) from KPGA Reporting Station
Clear Clear  
Wind Chill: 49°   Ceiling: Unl
Heat Index: 49°   Visibility: 10mi
Dew Point: 18°   Wind: 3mph
Humidity: 29%   Direction: NA
Pressure: 30.16"   Gusts: NA
Location:  36.34°N, 110.98°W
Report Text: KPGA 281853Z AUTO VRB03KT 10SM CLR 09/M08 A3016 RMK AO2 SLP202 T00941078 TSNO
Loading
Personal Weather Stations






























Interactive Weather Map New forecast layout! Learn more

10-Day Weather Forecast

Advertisements
Track Severe Weather on mobile